CheckWX is a tool to help pilots better visualize weather data.  It is not intended as a substitute for an official pre-flight weather briefing.

01:25:20 UTC

KCNI METAR
Cherokee County Airport
Canton, Georgia, USA
Current

35 mins ago

KCNI 280050Z AUTO 08006KT 10SM -RA BKN010 OVC015 21/20 A3002 RMK AO2
Observed
May-28 @ 00:50 UTC
Wind
  • 080° at 6 KTS
Visibility
Flight Rules
MVFR
Conditions
Light Rain
Cloud Levels
  • Broken at 1,000' AGL
  • Overcast at 1,500' AGL
Temperature
21°C / 70°F
Dewpoint
20°C / 68°F
Humidity
94%
Altimeter
30.02" Hg
Pressure
1016.62 hPa
Previous

55 mins ago

KCNI 280030Z AUTO 10004KT 10SM OVC012 21/20 A3002 RMK AO2
Observed
May-28 @ 00:30 UTC
Wind
  • 100° at 4 KTS
Visibility
Flight Rules
MVFR
Cloud Levels
  • Overcast at 1,200' AGL
Temperature
21°C / 70°F
Dewpoint
20°C / 68°F
Humidity
94%
Altimeter
30.02" Hg
Pressure
1016.62 hPa
Previous

1 hour ago

KCNI 280010Z AUTO 08004KT 10SM BKN012 OVC021 21/20 A3001 RMK AO2
Observed
May-28 @ 00:10 UTC
Wind
  • 080° at 4 KTS
Visibility
Flight Rules
MVFR
Cloud Levels
  • Broken at 1,200' AGL
  • Overcast at 2,100' AGL
Temperature
21°C / 70°F
Dewpoint
20°C / 68°F
Humidity
94%
Altimeter
30.01" Hg
Pressure
1016.22 hPa